Ione, Washington
Current Conditions -  °F | °C
As of 3:00 PM on Thursday 27 Nov 2014 (Local Time) from CYCG Reporting Station
Broken Clouds Broken Clouds  
Wind Chill: 37°   Ceiling: 3500
Heat Index: 37°   Visibility: 15mi
Dew Point: 37°   Wind: 2mph
Humidity: 100%   Direction: NA
Pressure: 29.73"   Gusts: NA
Location:  48.74°N, 117.42°W
Report Text: CYCG 272300Z VRB02KT 15SM FEW004 BKN035 03/03 A2973 RMK SF1SC6 SLP081
Loading
Personal Weather Stations






























Interactive Weather Map New forecast layout! Learn more

10-Day Weather Forecast

Advertisements
Track Severe Weather on mobile